createdAt,value
2023-03-07T05:47:35.959Z,2.10
2023-03-07T05:50:04.075Z,2.10
2023-03-07T05:52:32.015Z,2.20
2023-03-07T05:54:59.918Z,2.30
2023-03-07T05:57:27.833Z,2.30
2023-03-07T05:59:55.828Z,2.40
2023-03-07T06:02:23.826Z,2.40
2023-03-07T06:04:53.132Z,2.40
2023-03-07T06:07:21.103Z,2.40
2023-03-07T06:09:49.067Z,2.40
2023-03-07T06:12:27.120Z,2.40
2023-03-07T06:14:55.250Z,2.40
2023-03-07T06:17:23.260Z,2.50
2023-03-07T06:19:52.824Z,2.50
2023-03-07T06:22:20.803Z,2.50
2023-03-07T06:24:48.716Z,2.50
2023-03-07T06:27:16.611Z,2.50
2023-03-07T06:29:44.740Z,2.50
2023-03-07T06:32:12.658Z,2.50
2023-03-07T06:34:40.576Z,2.50
2023-03-07T06:37:09.881Z,2.50
2023-03-07T06:39:37.790Z,2.50
2023-03-07T06:42:06.215Z,2.60
2023-03-07T06:44:34.105Z,2.60
2023-03-07T06:47:02.160Z,2.70
2023-03-07T06:49:30.233Z,2.80
2023-03-07T06:51:58.231Z,2.80
2023-03-07T06:54:27.455Z,2.90
2023-03-07T06:56:55.572Z,2.90
2023-03-07T06:59:23.661Z,3.00
2023-03-07T07:01:51.786Z,3.00
2023-03-07T07:04:21.052Z,3.10
2023-03-07T07:06:48.912Z,3.10
2023-03-07T07:09:16.809Z,3.20
2023-03-07T07:11:46.025Z,3.30
2023-03-07T07:14:14.013Z,3.40
2023-03-07T07:16:42.097Z,3.40
2023-03-07T07:19:10.570Z,3.50
2023-03-07T07:21:38.727Z,3.70
2023-03-07T07:24:07.116Z,3.80
2023-03-07T07:26:35.139Z,3.70
2023-03-07T07:29:04.568Z,3.80
2023-03-07T07:31:32.564Z,3.80
2023-03-07T07:34:00.805Z,3.90
2023-03-07T07:36:28.932Z,3.80
2023-03-07T07:38:56.924Z,3.90
2023-03-07T07:41:24.921Z,3.90
2023-03-07T07:43:54.373Z,3.90
2023-03-07T15:02:35.010Z,5.90
2023-03-07T15:05:04.037Z,5.70
2023-03-07T15:07:32.005Z,5.60
2023-03-07T15:09:59.910Z,5.50
2023-03-07T15:12:30.369Z,5.50
2023-03-07T15:15:01.172Z,5.50
2023-03-07T15:17:34.364Z,5.60
2023-03-07T15:20:07.924Z,5.70
2023-03-07T15:22:40.132Z,5.80
2023-03-07T15:25:17.854Z,5.90
2023-03-07T15:27:45.894Z,5.90
2023-03-07T15:30:24.888Z,6.00
2023-03-07T15:33:15.590Z,6.00
2023-03-07T15:35:45.882Z,6.00
2023-03-07T15:38:19.076Z,6.00
2023-03-07T15:40:47.764Z,6.10
2023-03-07T15:43:18.316Z,6.00
2023-03-07T15:45:58.708Z,5.90
2023-03-07T15:48:30.836Z,5.80
2023-03-07T15:51:04.518Z,5.70
2023-03-07T15:53:34.887Z,5.60
2023-03-07T15:56:05.352Z,5.50
2023-03-07T15:58:36.273Z,5.40
2023-03-07T16:01:16.214Z,5.40
2023-03-07T16:03:50.817Z,5.50
2023-03-07T16:06:41.930Z,5.50
2023-03-07T16:09:13.909Z,5.70
2023-03-07T16:11:42.681Z,5.80
2023-03-07T16:14:21.597Z,5.80
2023-03-07T16:16:50.003Z,5.70
2023-03-07T16:19:18.041Z,5.70
2023-03-07T16:21:47.919Z,5.60
2023-03-07T16:24:15.945Z,5.50
2023-03-07T16:26:47.482Z,5.40
2023-03-07T16:29:17.730Z,5.40
2023-03-07T16:31:46.471Z,5.50
2023-03-07T16:34:17.283Z,5.70
2023-03-07T16:36:47.292Z,5.70
2023-03-07T16:39:18.449Z,5.80
2023-03-07T16:41:49.161Z,5.80
2023-03-07T16:44:18.164Z,5.90
2023-03-07T16:46:51.516Z,5.90
2023-03-07T16:49:19.619Z,5.80
2023-03-07T16:52:03.036Z,5.80
2023-03-07T16:54:34.807Z,5.80
2023-03-07T16:57:03.714Z,5.60
2023-03-07T16:59:35.571Z,5.50
2023-03-07T17:02:11.740Z,5.40
2023-03-07T17:04:39.782Z,5.20
2023-03-07T17:07:16.501Z,5.10
2023-03-07T17:09:46.276Z,5.00
2023-03-07T17:12:14.959Z,4.90
2023-03-07T17:14:43.304Z,4.70
2023-03-07T17:17:17.816Z,4.60
2023-03-07T17:19:45.741Z,4.40
2023-03-07T17:22:13.638Z,4.40
2023-03-07T17:24:41.571Z,4.40
2023-03-07T17:27:10.957Z,4.40
2023-03-07T17:29:41.177Z,4.50
2023-03-07T17:32:09.386Z,4.30
2023-03-07T17:34:38.747Z,4.20
2023-03-07T17:37:07.170Z,4.10
2023-03-07T17:39:36.058Z,4.00
2023-03-07T17:42:04.673Z,3.90
2023-03-07T17:44:34.507Z,3.70
2023-03-07T17:47:02.465Z,3.60
2023-03-07T17:49:34.613Z,3.50
2023-03-07T17:52:02.596Z,3.40
2023-03-07T17:54:32.323Z,3.50
2023-03-07T17:57:00.914Z,3.50
2023-03-07T17:59:28.898Z,3.50
2023-03-07T18:01:58.313Z,3.50
2023-03-07T18:04:28.413Z,3.70
2023-03-07T18:06:56.411Z,3.70
2023-03-07T18:09:26.398Z,3.80
2023-03-07T18:11:54.618Z,3.80
2023-03-07T18:14:22.611Z,3.80
2023-03-07T18:16:50.910Z,3.70
2023-03-07T18:19:26.308Z,3.70
2023-03-07T18:21:55.757Z,3.60
2023-03-07T18:24:27.261Z,3.60
2023-03-07T18:26:56.090Z,3.70
2023-03-07T18:29:25.063Z,3.70
2023-03-07T18:31:53.305Z,3.70
2023-03-07T18:34:24.638Z,3.80
2023-03-07T18:36:54.225Z,3.80
2023-03-07T18:39:23.671Z,3.80
2023-03-07T18:41:52.388Z,3.80
2023-03-07T18:44:20.580Z,3.80
2023-03-07T18:46:48.561Z,3.80
2023-03-07T18:49:17.735Z,3.80
2023-03-07T18:51:48.360Z,3.70
2023-03-07T18:54:16.558Z,3.70
2023-03-07T18:56:46.558Z,3.70
2023-03-07T18:59:14.963Z,3.70
2023-03-07T19:01:42.970Z,3.80
2023-03-07T19:04:11.704Z,3.70
2023-03-07T19:06:42.168Z,3.80
2023-03-07T19:09:15.854Z,3.70
2023-03-07T19:11:43.787Z,3.60
2023-03-07T19:14:11.735Z,3.60
2023-03-07T19:16:39.949Z,3.50
2023-03-07T19:19:07.985Z,3.40
2023-03-07T19:21:35.947Z,3.30
2023-03-07T19:24:05.745Z,3.20
2023-03-07T19:26:35.222Z,3.10
2023-03-07T19:29:04.296Z,3.00
2023-03-07T19:31:34.995Z,3.00
2023-03-07T19:34:04.954Z,3.00
2023-03-07T19:36:36.872Z,3.00
2023-03-07T19:39:05.818Z,3.10
2023-03-07T19:41:37.195Z,3.10
2023-03-07T19:44:06.519Z,3.10
2023-03-07T19:46:34.541Z,3.10
2023-03-07T19:49:02.440Z,3.20
2023-03-07T19:51:30.451Z,3.20
2023-03-07T19:53:59.994Z,3.20
2023-03-07T19:56:30.093Z,3.30
2023-03-07T19:59:01.583Z,3.30
2023-03-07T20:01:30.464Z,3.30
2023-03-07T20:03:58.882Z,3.30
2023-03-07T20:06:29.642Z,3.30
2023-03-07T20:08:59.006Z,3.30
2023-03-07T20:11:28.988Z,3.30
2023-03-07T20:13:58.350Z,3.30
2023-03-07T20:16:29.418Z,3.40
2023-03-07T20:18:58.811Z,3.40
2023-03-07T20:21:28.607Z,3.40
2023-03-07T20:23:59.446Z,3.30
2023-03-07T20:26:29.015Z,3.30
2023-03-07T20:28:58.006Z,3.30
2023-03-07T20:31:28.342Z,3.30
2023-03-07T20:33:58.061Z,3.20
2023-03-07T20:36:28.054Z,3.20
2023-03-07T20:38:57.821Z,3.10
2023-03-07T20:41:27.865Z,3.10
2023-03-07T20:43:59.479Z,3.10
2023-03-07T20:46:30.362Z,3.10
2023-03-07T20:49:00.287Z,3.10
2023-03-07T20:51:30.292Z,3.10
2023-03-07T20:54:00.121Z,3.10
2023-03-07T20:56:29.796Z,3.10
2023-03-07T20:58:59.057Z,3.10
